Time;durP1;ratioP1;P1;durP2;ratioP2;P2;SDS_P1;SDS_P2;PMS_P1;PMS_P2;Temp;Humidity;BMP_temperature;BMP_pressure;BME280_temperature;BME280_humidity;BME280_pressure;Samples;Min_cycle;Max_cycle;Signal;HPM_P1;HPM_P2
2021/11/17 02:28:04;;;;;;;20.60;9.87;;;15.70;99.90;;;;;;5046935;28;20191;-63
2021/11/17 02:30:51;;;;;;;22.20;9.80;;;15.70;99.90;;;;;;5054017;28;20647;-63
2021/11/17 02:33:47;;;;;;;20.80;8.93;;;15.60;99.90;;;;;;5060435;28;20183;-64
2021/11/17 02:36:29;;;;;;;15.57;9.50;;;15.70;99.90;;;;;;5056257;28;20527;-65
2021/11/17 02:39:10;;;;;;;19.40;9.67;;;15.60;99.90;;;;;;5055553;28;20190;-65
2021/11/17 02:42:05;;;;;;;23.97;9.27;;;15.60;99.90;;;;;;5047281;28;20217;-61
2021/11/17 02:45:08;;;;;;;24.83;10.13;;;15.60;99.90;;;;;;5061343;28;20644;-62
2021/11/17 02:48:21;;;;;;;32.80;9.73;;;15.60;99.90;;;;;;5063551;28;20186;-63
2021/11/17 02:51:31;;;;;;;20.03;9.23;;;15.60;99.90;;;;;;5052905;28;20198;-64
2021/11/17 02:54:25;;;;;;;25.97;10.10;;;15.50;99.90;;;;;;5057090;28;20194;-62
2021/11/17 02:57:18;;;;;;;26.70;9.30;;;15.50;99.90;;;;;;5044475;28;20199;-62
2021/11/17 03:00:10;;;;;;;20.53;8.60;;;15.50;99.90;;;;;;5053451;28;20194;-61
2021/11/17 03:02:52;;;;;;;25.70;8.77;;;15.40;99.90;;;;;;5035633;28;20184;-62
2021/11/17 03:05:49;;;;;;;20.33;8.90;;;15.40;99.90;;;;;;5055606;28;20206;-63
2021/11/17 03:09:11;;;;;;;24.63;9.00;;;15.30;99.90;;;;;;5060046;28;20186;-62
2021/11/17 03:11:55;;;;;;;28.47;9.40;;;15.30;99.90;;;;;;5058826;28;20175;-62
2021/11/17 03:15:03;;;;;;;19.73;8.87;;;15.30;99.90;;;;;;5060680;28;20179;-63
2021/11/17 03:17:47;;;;;;;21.30;9.00;;;15.30;99.90;;;;;;5056387;28;20186;-62
2021/11/17 03:20:34;;;;;;;16.47;8.37;;;15.30;99.90;;;;;;5063136;28;20193;-63
2021/11/17 03:23:22;;;;;;;16.03;9.50;;;15.20;99.90;;;;;;5057949;28;20195;-61
2021/11/17 03:26:50;;;;;;;30.13;9.73;;;15.20;99.90;;;;;;5059652;28;20519;-62
2021/11/17 03:30:07;;;;;;;25.63;9.33;;;15.20;99.90;;;;;;5057672;28;20191;-62
2021/11/17 03:33:07;;;;;;;26.70;9.43;;;15.10;99.90;;;;;;5043716;28;20195;-62
2021/11/17 03:36:10;;;;;;;22.07;9.50;;;15.10;99.90;;;;;;5054423;28;20839;-61
2021/11/17 03:38:54;;;;;;;23.93;9.00;;;15.10;99.90;;;;;;5060531;28;20198;-62
2021/11/17 03:41:57;;;;;;;26.87;9.77;;;15.00;99.90;;;;;;5050157;28;20309;-62
2021/11/17 03:45:16;;;;;;;34.27;10.40;;;15.00;99.90;;;;;;5059790;28;20201;-63
2021/11/17 03:47:57;;;;;;;22.07;10.00;;;15.00;99.90;;;;;;5037248;28;20207;-62
2021/11/17 03:51:20;;;;;;;25.13;10.37;;;15.00;99.90;;;;;;5048532;28;20643;-63
2021/11/17 03:54:40;;;;;;;15.90;9.20;;;15.00;99.90;;;;;;5035711;28;20210;-62
2021/11/17 03:57:43;;;;;;;22.20;10.53;;;15.00;99.90;;;;;;5040563;28;20202;-64
2021/11/17 04:00:27;;;;;;;29.30;9.63;;;15.00;99.90;;;;;;5059804;28;20213;-63
2021/11/17 04:03:22;;;;;;;20.03;9.40;;;15.10;99.90;;;;;;5064053;28;20368;-63
2021/11/17 04:06:15;;;;;;;27.53;9.53;;;15.10;99.90;;;;;;5050357;28;20192;-62
2021/11/17 04:09:26;;;;;;;19.93;9.17;;;15.10;99.90;;;;;;5058367;28;20210;-63
2021/11/17 04:12:49;;;;;;;15.77;9.13;;;15.20;99.90;;;;;;5044863;28;20489;-62
2021/11/17 04:15:36;;;;;;;29.53;10.13;;;15.20;99.90;;;;;;5054995;28;20604;-62
2021/11/17 04:18:18;;;;;;;21.27;9.70;;;15.20;99.90;;;;;;5058875;28;20198;-62
2021/11/17 04:20:55;;;;;;;19.77;8.67;;;15.30;99.90;;;;;;5052560;28;20214;-63
2021/11/17 04:23:53;;;;;;;17.77;8.70;;;15.20;99.90;;;;;;5065075;28;20654;-62
2021/11/17 04:26:50;;;;;;;18.87;9.43;;;15.20;99.90;;;;;;5058096;28;20273;-61
2021/11/17 04:29:59;;;;;;;23.97;8.97;;;15.20;99.90;;;;;;5060335;28;20303;-61
2021/11/17 04:33:09;;;;;;;14.63;8.90;;;15.20;99.90;;;;;;5047769;28;20202;-62
2021/11/17 04:36:04;;;;;;;19.37;8.67;;;15.20;99.90;;;;;;5059786;28;20183;-62
2021/11/17 04:39:11;;;;;;;28.37;9.23;;;15.20;99.90;;;;;;5059659;28;20557;-62
2021/11/17 04:41:44;;;;;;;20.73;8.73;;;15.20;99.90;;;;;;5049774;28;20222;-61
2021/11/17 04:44:28;;;;;;;19.37;9.40;;;15.30;99.90;;;;;;5066852;28;20945;-62
2021/11/17 04:47:22;;;;;;;29.13;9.33;;;15.30;99.90;;;;;;5059404;28;20660;-64
2021/11/17 04:50:30;;;;;;;27.87;9.27;;;15.30;99.90;;;;;;5058521;28;20195;-64
2021/11/17 04:53:49;;;;;;;18.30;9.03;;;15.40;99.90;;;;;;5060629;28;20190;-62
2021/11/17 04:57:08;;;;;;;24.90;10.80;;;15.40;99.90;;;;;;5072836;28;20191;-62
2021/11/17 04:59:43;;;;;;;31.03;9.87;;;15.40;99.90;;;;;;5058066;28;20873;-62
2021/11/17 05:02:40;;;;;;;20.10;9.57;;;15.50;99.90;;;;;;5059302;28;20265;-62
2021/11/17 05:05:38;;;;;;;27.60;9.00;;;15.50;99.90;;;;;;5055929;28;20207;-61
2021/11/17 05:08:25;;;;;;;19.10;9.23;;;15.50;99.90;;;;;;5032992;28;20747;-63
2021/11/17 05:11:16;;;;;;;24.67;10.30;;;15.60;99.90;;;;;;5059168;28;20313;-61
2021/11/17 05:14:13;;;;;;;20.40;10.00;;;15.60;99.90;;;;;;5074690;28;20187;-62
2021/11/17 05:16:57;;;;;;;21.53;10.00;;;15.70;99.90;;;;;;5052044;28;20675;-61
2021/11/17 05:19:57;;;;;;;20.43;10.90;;;15.80;99.90;;;;;;5050068;28;20865;-61
2021/11/17 05:23:08;;;;;;;23.10;11.50;;;15.80;99.90;;;;;;5059603;28;20855;-60
2021/11/17 05:26:21;;;;;;;19.57;11.23;;;15.80;99.90;;;;;;5049091;28;20270;-61
2021/11/17 05:29:18;;;;;;;28.63;11.07;;;15.90;99.90;;;;;;5047490;28;20198;-63
2021/11/17 05:32:25;;;;;;;22.77;10.90;;;15.90;99.90;;;;;;5054711;28;20875;-64
2021/11/17 05:35:00;;;;;;;23.43;10.33;;;15.90;99.90;;;;;;5052153;28;20187;-63
2021/11/17 05:38:09;;;;;;;19.07;11.07;;;16.00;99.90;;;;;;5055712;28;20190;-64
2021/11/17 05:40:54;;;;;;;26.63;10.43;;;16.00;99.90;;;;;;5042832;28;20722;-64
2021/11/17 05:43:39;;;;;;;21.27;11.47;;;16.00;99.90;;;;;;5058887;28;20253;-63
2021/11/17 05:46:44;;;;;;;23.90;11.70;;;16.00;99.90;;;;;;5048811;28;20183;-64
2021/11/17 05:49:43;;;;;;;20.60;11.53;;;16.00;99.90;;;;;;5045404;28;20226;-64
2021/11/17 05:52:47;;;;;;;26.47;12.27;;;16.10;99.90;;;;;;5059578;28;20229;-64
2021/11/17 05:55:33;;;;;;;21.60;12.90;;;16.10;99.90;;;;;;5025637;28;20282;-63
2021/11/17 05:58:22;;;;;;;24.53;12.50;;;16.20;99.90;;;;;;5059302;28;20693;-63
2021/11/17 06:01:06;;;;;;;27.07;13.07;;;16.20;99.90;;;;;;5055514;28;20292;-63
2021/11/17 06:04:03;;;;;;;24.73;13.07;;;16.20;99.90;;;;;;5060808;28;20182;-63
2021/11/17 06:06:36;;;;;;;39.73;13.80;;;16.30;99.90;;;;;;5062530;28;20243;-64
2021/11/17 06:09:02;;;;;;;30.40;13.47;;;16.40;99.90;;;;;;5055444;28;20246;-63
2021/11/17 06:11:39;;;;;;;26.60;12.83;;;16.40;99.90;;;;;;5056269;28;20571;-63
2021/11/17 06:14:13;;;;;;;24.27;13.50;;;16.40;99.90;;;;;;5061438;28;20249;-63
2021/11/17 06:16:45;;;;;;;29.53;12.87;;;16.50;99.90;;;;;;5059697;28;20198;-63
2021/11/17 06:19:13;;;;;;;21.93;11.30;;;16.60;99.90;;;;;;5055094;28;20275;-63
2021/11/17 06:21:42;;;;;;;26.90;11.07;;;16.60;99.90;;;;;;5062098;28;20238;-63
2021/11/17 06:24:12;;;;;;;22.40;10.17;;;16.70;99.90;;;;;;5056955;28;20209;-64
2021/11/17 06:26:42;;;;;;;25.07;9.83;;;16.70;99.90;;;;;;5062159;28;20787;-64
2021/11/17 06:29:24;;;;;;;20.00;9.37;;;16.80;99.90;;;;;;5059059;28;20187;-63
2021/11/17 06:31:53;;;;;;;18.60;9.10;;;16.80;99.90;;;;;;5062548;28;20274;-63
2021/11/17 06:34:36;;;;;;;20.03;9.83;;;16.90;99.90;;;;;;5065646;28;20820;-62
2021/11/17 06:37:09;;;;;;;22.77;9.50;;;16.90;99.90;;;;;;5062122;28;20737;-62
2021/11/17 06:39:40;;;;;;;20.57;10.27;;;16.90;99.90;;;;;;5057883;28;20190;-62
2021/11/17 06:42:12;;;;;;;19.07;10.17;;;17.00;99.90;;;;;;5053056;28;20215;-63
2021/11/17 06:44:41;;;;;;;35.77;10.23;;;17.00;99.90;;;;;;5064144;28;20186;-63
2021/11/17 06:47:08;;;;;;;33.13;9.63;;;17.10;99.90;;;;;;5059644;28;20280;-62
2021/11/17 06:49:34;;;;;;;31.80;10.03;;;17.10;99.90;;;;;;5061338;28;20223;-63
2021/11/17 06:52:03;;;;;;;38.43;9.53;;;17.20;99.90;;;;;;5055608;28;20187;-62
2021/11/17 06:54:29;;;;;;;27.00;9.50;;;17.30;99.90;;;;;;5052160;28;20682;-63
2021/11/17 06:56:56;;;;;;;27.13;10.07;;;17.30;99.90;;;;;;5051668;28;20195;-63
2021/11/17 06:59:22;;;;;;;42.10;10.33;;;17.40;99.90;;;;;;5057661;28;20194;-62
2021/11/17 07:01:49;;;;;;;24.50;10.33;;;17.40;99.90;;;;;;5062531;28;20203;-62
2021/11/17 07:04:15;;;;;;;27.27;11.27;;;17.40;99.90;;;;;;5058215;28;20190;-62
2021/11/17 07:06:42;;;;;;;30.50;10.70;;;17.60;99.90;;;;;;5065583;28;20269;-64
2021/11/17 07:09:09;;;;;;;17.53;10.10;;;17.70;99.90;;;;;;5065866;28;20265;-64
2021/11/17 07:11:38;;;;;;;22.73;10.20;;;17.80;99.90;;;;;;5059949;28;20195;-64
2021/11/17 07:14:11;;;;;;;24.97;10.50;;;17.80;99.90;;;;;;5069697;28;20460;-63
2021/11/17 07:16:39;;;;;;;27.90;10.23;;;17.80;99.90;;;;;;5046543;28;20539;-63
2021/11/17 07:19:11;;;;;;;35.60;10.00;;;17.80;99.90;;;;;;5061082;28;20322;-64
2021/11/17 07:21:43;;;;;;;28.10;10.00;;;17.80;99.90;;;;;;5063781;28;20577;-64
2021/11/17 07:24:10;;;;;;;32.47;10.13;;;17.80;99.90;;;;;;5061131;28;20226;-64
2021/11/17 07:26:37;;;;;;;25.13;9.50;;;17.90;99.90;;;;;;5063998;28;20202;-65
2021/11/17 07:29:04;;;;;;;20.53;9.43;;;17.80;99.90;;;;;;5055580;28;20225;-64
2021/11/17 07:31:30;;;;;;;24.93;9.07;;;17.80;99.90;;;;;;5056554;28;20241;-64
2021/11/17 07:33:56;;;;;;;16.80;9.90;;;17.90;99.90;;;;;;5068087;28;20637;-64
2021/11/17 07:36:23;;;;;;;30.73;9.83;;;17.90;99.90;;;;;;5064500;28;20227;-64
2021/11/17 07:38:49;;;;;;;24.17;9.80;;;17.90;99.90;;;;;;5051362;28;20278;-62
2021/11/17 07:41:16;;;;;;;23.03;9.50;;;17.90;99.90;;;;;;5044525;28;20198;-62
2021/11/17 07:43:43;;;;;;;28.30;10.37;;;17.90;99.90;;;;;;5063582;28;20270;-62
2021/11/17 07:46:09;;;;;;;25.83;9.93;;;17.90;99.90;;;;;;5056058;28;20238;-62
2021/11/17 07:48:36;;;;;;;25.47;9.70;;;17.90;99.90;;;;;;5063881;28;20322;-63
2021/11/17 07:51:03;;;;;;;31.77;10.10;;;18.00;99.90;;;;;;5065708;28;20277;-64
2021/11/17 07:53:31;;;;;;;17.00;9.50;;;18.10;99.90;;;;;;5061795;28;20614;-63
2021/11/17 07:56:00;;;;;;;34.33;11.00;;;18.10;99.90;;;;;;5060417;28;20708;-63
2021/11/17 07:58:33;;;;;;;23.47;10.73;;;18.20;99.90;;;;;;5061580;28;20557;-64
2021/11/17 08:01:01;;;;;;;26.33;11.27;;;18.20;99.90;;;;;;5063684;28;20943;-63
2021/11/17 08:03:39;;;;;;;24.83;9.97;;;18.30;99.90;;;;;;5065478;28;20253;-64
2021/11/17 08:06:09;;;;;;;34.13;10.40;;;18.30;99.90;;;;;;5063053;28;20543;-64
2021/11/17 08:08:37;;;;;;;25.03;10.07;;;18.40;99.90;;;;;;5058377;28;20331;-64
2021/11/17 08:11:07;;;;;;;29.13;10.07;;;18.30;99.90;;;;;;5057688;28;20199;-64
2021/11/17 08:13:33;;;;;;;22.73;9.73;;;18.40;99.90;;;;;;5056022;28;20659;-64
2021/11/17 08:16:01;;;;;;;30.37;9.13;;;18.50;99.90;;;;;;5054645;28;20311;-62
2021/11/17 08:18:28;;;;;;;22.77;10.37;;;18.60;99.90;;;;;;5051632;28;20289;-63
2021/11/17 08:20:55;;;;;;;26.40;9.50;;;18.70;99.90;;;;;;5052415;28;20218;-64
2021/11/17 08:23:22;;;;;;;27.00;9.80;;;18.80;99.90;;;;;;5052413;28;20199;-63
2021/11/17 08:25:49;;;;;;;24.13;10.40;;;18.80;99.90;;;;;;5051110;28;20195;-63
2021/11/17 08:28:16;;;;;;;27.43;9.73;;;18.90;99.90;;;;;;5056054;28;20183;-64
2021/11/17 08:30:45;;;;;;;16.77;10.17;;;18.90;99.90;;;;;;5060231;28;20187;-64
2021/11/17 08:33:16;;;;;;;25.23;10.00;;;18.90;99.90;;;;;;5057556;28;20198;-64
2021/11/17 08:35:44;;;;;;;28.83;10.00;;;18.90;99.90;;;;;;5053806;28;20202;-63
2021/11/17 08:38:17;;;;;;;20.47;9.33;;;18.90;99.90;;;;;;5062414;28;20675;-64
2021/11/17 08:40:55;;;;;;;22.73;8.67;;;19.00;99.90;;;;;;5053639;28;20211;-63
2021/11/17 08:43:23;;;;;;;31.53;9.47;;;19.00;99.90;;;;;;5060929;28;20187;-64
2021/11/17 08:45:51;;;;;;;22.13;8.10;;;19.10;99.90;;;;;;5058966;28;20181;-63
2021/11/17 08:48:22;;;;;;;25.60;8.67;;;19.10;99.90;;;;;;5059385;28;20210;-63
2021/11/17 08:50:52;;;;;;;17.50;9.20;;;19.20;99.90;;;;;;5065123;28;20872;-65
2021/11/17 08:53:21;;;;;;;29.53;9.67;;;19.20;99.90;;;;;;5077252;28;20183;-64
2021/11/17 08:55:48;;;;;;;25.43;9.77;;;19.30;99.90;;;;;;5049463;28;20821;-64
2021/11/17 08:58:16;;;;;;;33.20;9.60;;;19.40;99.90;;;;;;5062921;28;20270;-63
2021/11/17 09:00:46;;;;;;;23.77;9.80;;;19.40;99.90;;;;;;5061421;28;20222;-64
2021/11/17 09:03:13;;;;;;;32.30;8.83;;;19.40;99.90;;;;;;5058895;28;20210;-63
2021/11/17 09:05:53;;;;;;;22.07;9.40;;;19.40;99.90;;;;;;5056754;28;20191;-64
2021/11/17 09:08:22;;;;;;;20.47;8.30;;;19.50;99.90;;;;;;5058779;28;20214;-63
2021/11/17 09:10:54;;;;;;;29.13;7.87;;;19.50;99.90;;;;;;5062460;28;20228;-64
2021/11/17 09:13:21;;;;;;;27.33;8.37;;;19.50;99.90;;;;;;5057164;28;20191;-63
2021/11/17 09:15:50;;;;;;;26.80;8.90;;;19.50;99.90;;;;;;5058140;28;20188;-64
2021/11/17 09:18:23;;;;;;;27.80;8.30;;;19.70;99.90;;;;;;5059601;28;20194;-64
2021/11/17 09:20:51;;;;;;;16.03;8.40;;;19.70;99.90;;;;;;5053578;28;20309;-64
2021/11/17 09:23:19;;;;;;;27.60;9.43;;;19.80;99.90;;;;;;5058600;28;20307;-63
2021/11/17 09:25:48;;;;;;;32.97;9.63;;;19.90;99.90;;;;;;5058874;28;20183;-64
2021/11/17 09:28:15;;;;;;;26.57;9.30;;;19.90;99.90;;;;;;5061867;28;20179;-63
2021/11/17 09:30:42;;;;;;;27.40;9.53;;;20.00;99.90;;;;;;5061099;28;20218;-64
2021/11/17 09:33:12;;;;;;;26.33;9.83;;;20.10;99.90;;;;;;5055411;28;20299;-64
2021/11/17 09:35:39;;;;;;;21.07;9.40;;;20.10;99.90;;;;;;5051726;28;20195;-64
2021/11/17 09:38:10;;;;;;;22.70;9.17;;;20.20;99.90;;;;;;5056517;28;20767;-65
2021/11/17 09:40:50;;;;;;;22.20;9.83;;;20.20;99.90;;;;;;5061578;28;20201;-64
2021/11/17 09:43:29;;;;;;;22.13;8.80;;;20.30;99.90;;;;;;5056708;28;20808;-64
2021/11/17 09:45:58;;;;;;;19.20;9.00;;;20.30;99.90;;;;;;5057357;28;20189;-64
2021/11/17 09:48:44;;;;;;;27.63;9.57;;;20.30;99.90;;;;;;5050312;28;20234;-63
2021/11/17 09:51:26;;;;;;;22.80;10.50;;;20.30;99.90;;;;;;5057315;28;20724;-63
2021/11/17 09:54:13;;;;;;;25.73;8.87;;;20.40;99.90;;;;;;5062077;28;20194;-63
2021/11/17 09:56:49;;;;;;;22.80;10.40;;;20.50;99.90;;;;;;5059633;28;20290;-64
2021/11/17 09:59:27;;;;;;;24.00;10.17;;;20.70;99.90;;;;;;5053525;28;20187;-64
2021/11/17 10:02:00;;;;;;;26.20;10.00;;;20.80;99.90;;;;;;5054583;28;20212;-63
2021/11/17 10:04:51;;;;;;;23.70;9.63;;;20.90;99.90;;;;;;5055819;28;20225;-65
2021/11/17 10:13:49;;;;;;;22.43;9.30;;;21.00;99.90;;;;;;5062977;28;20869;-64
2021/11/17 10:16:17;;;;;;;24.70;9.67;;;21.20;99.90;;;;;;5055221;28;21029;-63
2021/11/17 10:19:11;;;;;;;23.80;9.83;;;21.80;99.90;;;;;;5056517;28;20186;-63
2021/11/17 10:21:37;;;;;;;22.67;9.23;;;23.20;99.90;;;;;;5060443;28;20242;-65
2021/11/17 10:24:10;;;;;;;21.63;9.50;;;24.00;99.90;;;;;;5053438;28;20207;-63
2021/11/17 10:26:52;;;;;;;28.10;9.77;;;24.90;99.90;;;;;;5057353;28;20564;-64
2021/11/17 10:29:43;;;;;;;29.10;10.70;;;25.00;99.90;;;;;;5055479;28;20193;-64
2021/11/17 10:32:31;;;;;;;19.85;9.27;;;24.30;99.90;;;;;;5059427;28;20187;-63
2021/11/17 10:35:19;;;;;;;23.27;9.27;;;23.60;99.90;;;;;;5056772;28;20195;-65
2021/11/17 10:38:23;;;;;;;28.67;10.40;;;23.20;99.90;;;;;;5055945;28;20639;-64
2021/11/17 10:41:00;;;;;;;27.77;10.03;;;23.00;99.90;;;;;;5052264;28;20320;-64
2021/11/17 10:43:49;;;;;;;24.70;10.87;;;22.90;99.90;;;;;;5058195;28;20268;-64
2021/11/17 10:46:22;;;;;;;22.10;9.83;;;22.80;99.90;;;;;;5048512;28;21660;-64
2021/11/17 10:49:12;;;;;;;22.27;9.63;;;22.70;99.90;;;;;;5056541;28;20294;-64
2021/11/17 10:52:03;;;;;;;32.47;9.47;;;22.80;99.90;;;;;;5055605;28;20191;-64
2021/11/17 10:54:32;;;;;;;29.00;9.80;;;22.80;99.90;;;;;;5055243;28;20298;-63
2021/11/17 10:57:12;;;;;;;28.10;9.00;;;22.70;99.90;;;;;;5051744;28;20199;-63
2021/11/17 10:59:39;;;;;;;18.77;9.73;;;22.70;99.90;;;;;;5052994;28;20194;-64
2021/11/17 11:02:11;;;;;;;22.90;9.60;;;22.50;99.90;;;;;;5053972;28;20825;-65
2021/11/17 11:04:49;;;;;;;28.27;9.00;;;22.40;99.90;;;;;;5048917;28;20283;-64
2021/11/17 11:07:49;;;;;;;23.60;10.00;;;22.30;99.90;;;;;;5053912;28;20194;-63
2021/11/17 11:10:39;;;;;;;33.77;9.47;;;22.20;99.90;;;;;;5052232;28;20183;-66
2021/11/17 11:13:11;;;;;;;22.03;9.50;;;22.10;99.90;;;;;;5057706;28;20190;-64
2021/11/17 11:15:47;;;;;;;25.70;9.80;;;22.00;99.90;;;;;;5057652;28;20198;-64
2021/11/17 11:18:13;;;;;;;27.87;9.33;;;21.80;99.90;;;;;;5061879;28;20191;-65
2021/11/17 11:20:55;;;;;;;18.40;9.03;;;21.70;99.90;;;;;;5058741;28;20966;-64
2021/11/17 11:23:55;;;;;;;17.67;8.63;;;21.60;99.90;;;;;;5057075;28;20223;-63
2021/11/17 11:26:26;;;;;;;20.50;9.17;;;21.50;99.90;;;;;;5052915;28;20188;-65
2021/11/17 11:29:22;;;;;;;24.70;9.53;;;21.50;99.90;;;;;;5050654;28;20187;-64
2021/11/17 11:31:52;;;;;;;25.73;10.23;;;21.40;99.90;;;;;;5051506;28;20192;-63
2021/11/17 11:35:03;;;;;;;22.70;9.63;;;21.40;99.90;;;;;;5052466;28;20191;-63
2021/11/17 11:37:32;;;;;;;28.17;9.43;;;21.40;99.90;;;;;;5057673;28;20734;-64
2021/11/17 11:40:12;;;;;;;28.63;10.23;;;21.40;99.90;;;;;;5055178;28;20203;-64
2021/11/17 11:43:00;;;;;;;38.03;9.87;;;21.40;99.90;;;;;;5054924;28;20206;-63
2021/11/17 11:45:26;;;;;;;20.23;9.50;;;21.30;99.90;;;;;;5060514;28;20176;-65
2021/11/17 11:48:00;;;;;;;33.40;10.00;;;21.40;99.90;;;;;;5063050;28;22228;-64
2021/11/17 11:50:33;;;;;;;23.60;9.23;;;21.40;99.90;;;;;;5065786;28;20186;-63
2021/11/17 11:53:16;;;;;;;23.40;9.73;;;21.50;99.90;;;;;;5060456;28;20815;-63
2021/11/17 11:55:52;;;;;;;16.60;9.33;;;21.50;99.90;;;;;;5061853;28;20227;-65
2021/11/17 11:58:21;;;;;;;22.37;8.97;;;21.30;99.90;;;;;;5056035;28;20277;-65
2021/11/17 12:01:23;;;;;;;18.67;10.40;;;21.30;99.90;;;;;;5060314;28;20532;-64
2021/11/17 12:04:23;;;;;;;28.83;9.53;;;21.20;99.90;;;;;;5054843;28;20187;-65
2021/11/17 12:07:12;;;;;;;26.03;9.83;;;21.10;99.90;;;;;;5054461;28;20184;-65
2021/11/17 12:10:28;;;;;;;25.10;10.90;;;21.00;99.90;;;;;;5063837;28;20235;-64
2021/11/17 12:12:55;;;;;;;22.43;10.00;;;20.90;99.90;;;;;;5063764;28;20289;-64
2021/11/17 12:15:34;;;;;;;23.57;9.77;;;20.80;99.90;;;;;;5061955;28;20237;-64
2021/11/17 12:18:09;;;;;;;22.97;10.50;;;20.80;99.90;;;;;;5054853;28;20189;-64
2021/11/17 12:20:43;;;;;;;22.33;8.87;;;20.80;99.90;;;;;;5063744;28;20212;-65
2021/11/17 12:23:30;;;;;;;20.90;10.10;;;20.70;99.90;;;;;;5062006;28;21026;-64
2021/11/17 12:26:08;;;;;;;23.10;10.27;;;20.70;99.90;;;;;;5063472;28;20281;-64
2021/11/17 12:29:19;;;;;;;27.67;9.93;;;20.60;99.90;;;;;;5057344;28;20891;-63
2021/11/17 12:32:15;;;;;;;24.83;10.43;;;20.60;99.90;;;;;;5061009;28;20226;-65
2021/11/17 12:35:25;;;;;;;24.53;10.20;;;20.60;99.90;;;;;;5070185;28;20186;-63
2021/11/17 12:37:55;;;;;;;25.23;9.47;;;20.50;99.90;;;;;;5056512;28;20263;-64
2021/11/17 12:41:00;;;;;;;23.77;9.40;;;20.50;99.90;;;;;;5057004;28;20572;-63
2021/11/17 12:43:41;;;;;;;24.23;9.87;;;20.50;99.90;;;;;;5063309;28;20189;-65
2021/11/17 12:46:47;;;;;;;29.10;10.03;;;20.40;99.90;;;;;;5053073;28;20236;-64
2021/11/17 12:49:20;;;;;;;24.73;9.80;;;20.40;99.90;;;;;;5058427;28;20187;-65
2021/11/17 12:52:02;;;;;;;35.03;10.37;;;20.40;99.90;;;;;;5054358;28;20199;-63
2021/11/17 12:54:51;;;;;;;27.87;9.63;;;20.40;99.90;;;;;;5059453;28;20198;-65
2021/11/17 12:57:48;;;;;;;31.10;9.80;;;20.40;99.90;;;;;;5055453;28;20227;-65
2021/11/17 13:00:20;;;;;;;19.37;9.63;;;20.40;99.90;;;;;;5055186;28;20190;-63
2021/11/17 13:02:59;;;;;;;31.20;10.40;;;20.40;99.90;;;;;;5054862;28;20219;-64
2021/11/17 13:05:45;;;;;;;34.63;9.63;;;20.40;99.90;;;;;;5054145;28;20559;-65
2021/11/17 13:08:18;;;;;;;38.27;10.63;;;20.40;99.90;;;;;;5059385;28;20178;-65
2021/11/17 13:11:15;;;;;;;21.70;10.10;;;20.40;99.90;;;;;;5053072;28;20341;-64
2021/11/17 13:13:51;;;;;;;26.13;9.80;;;20.40;99.90;;;;;;5034264;28;20180;-64
2021/11/17 13:16:39;;;;;;;20.73;9.83;;;20.30;99.90;;;;;;5055455;28;20225;-65
2021/11/17 13:19:20;;;;;;;23.57;10.00;;;20.30;99.90;;;;;;5058038;28;20186;-65
2021/11/17 13:22:00;;;;;;;26.70;10.57;;;20.30;99.90;;;;;;5052127;28;20244;-65
2021/11/17 13:24:41;;;;;;;25.47;9.70;;;20.20;99.90;;;;;;5061022;28;20248;-63
2021/11/17 13:27:07;;;;;;;24.30;10.00;;;20.10;99.90;;;;;;5059698;28;20241;-65
2021/11/17 13:30:12;;;;;;;20.67;10.50;;;20.10;99.90;;;;;;5060716;28;20664;-63
2021/11/17 13:32:44;;;;;;;25.70;9.47;;;20.00;99.90;;;;;;5052064;28;20187;-64
2021/11/17 13:35:38;;;;;;;27.10;9.30;;;19.90;99.90;;;;;;5051090;28;20222;-65
2021/11/17 13:38:22;;;;;;;23.33;9.77;;;19.90;99.90;;;;;;5058373;28;20194;-63
2021/11/17 13:41:00;;;;;;;27.27;9.03;;;19.90;99.90;;;;;;5054882;28;20190;-64
2021/11/17 13:43:28;;;;;;;27.03;9.67;;;19.90;99.90;;;;;;5061642;28;20183;-64
2021/11/17 13:46:01;;;;;;;21.77;9.30;;;19.80;99.90;;;;;;5059210;28;20878;-65
2021/11/17 13:48:36;;;;;;;22.50;9.47;;;19.80;99.90;;;;;;5058863;28;20687;-64
2021/11/17 13:51:03;;;;;;;22.57;9.20;;;19.80;99.90;;;;;;5055021;28;20187;-64
2021/11/17 13:53:29;;;;;;;20.87;9.77;;;19.70;99.90;;;;;;5045560;28;20187;-64
2021/11/17 13:56:06;;;;;;;26.43;9.53;;;19.80;99.90;;;;;;5059878;28;20700;-65
2021/11/17 13:58:33;;;;;;;27.73;9.23;;;19.70;99.90;;;;;;5054580;28;20217;-63
2021/11/17 14:01:01;;;;;;;24.03;9.87;;;19.70;99.90;;;;;;5058440;28;20843;-65
2021/11/17 14:03:30;;;;;;;24.60;9.10;;;19.70;99.90;;;;;;5061024;28;20224;-63
2021/11/17 14:06:02;;;;;;;27.43;9.90;;;19.60;99.90;;;;;;5055839;28;20184;-63
2021/11/17 14:08:31;;;;;;;23.00;9.03;;;19.60;99.90;;;;;;5052768;28;20219;-64
2021/11/17 14:10:58;;;;;;;20.70;8.40;;;19.50;99.90;;;;;;5053810;28;20850;-62
2021/11/17 14:13:26;;;;;;;27.60;9.03;;;19.50;99.90;;;;;;5058316;28;20201;-63
2021/11/17 14:15:53;;;;;;;21.63;9.57;;;19.50;99.90;;;;;;5054916;28;20190;-63
2021/11/17 14:18:20;;;;;;;18.93;9.00;;;19.40;99.90;;;;;;5052642;28;20188;-63
2021/11/17 14:20:47;;;;;;;22.97;8.77;;;19.40;99.90;;;;;;5062127;28;20740;-64
2021/11/17 14:23:16;;;;;;;21.77;9.13;;;19.40;99.90;;;;;;5064965;28;20211;-64
2021/11/17 14:25:45;;;;;;;29.23;8.67;;;19.30;99.90;;;;;;5062121;28;20183;-65
2021/11/17 14:28:25;;;;;;;28.00;8.87;;;19.30;99.90;;;;;;5057097;28;20191;-64
2021/11/17 14:31:04;;;;;;;21.20;9.63;;;19.30;99.90;;;;;;5055131;28;20194;-64
2021/11/17 14:33:32;;;;;;;20.73;10.20;;;19.20;99.90;;;;;;5053371;28;20282;-64
2021/11/17 14:36:04;;;;;;;40.03;17.00;;;19.10;99.90;;;;;;5049878;28;20276;-65
2021/11/17 14:38:32;;;;;;;49.27;20.73;;;19.10;99.90;;;;;;5064450;28;20190;-65
2021/11/17 14:41:00;;;;;;;68.47;26.60;;;19.10;99.90;;;;;;5055825;28;20223;-64
2021/11/17 14:43:27;;;;;;;65.50;24.40;;;19.10;99.90;;;;;;5052117;28;20205;-64
2021/11/17 14:45:54;;;;;;;46.27;18.70;;;19.10;99.90;;;;;;5058571;28;20187;-65
2021/11/17 14:48:21;;;;;;;33.90;14.13;;;19.00;99.90;;;;;;5044395;28;20731;-66
2021/11/17 14:50:51;;;;;;;31.17;11.77;;;19.00;99.90;;;;;;5056754;28;20219;-65
2021/11/17 14:53:18;;;;;;;20.80;11.13;;;18.90;99.90;;;;;;5048552;28;20222;-66
2021/11/17 14:55:45;;;;;;;20.13;10.00;;;18.80;99.90;;;;;;5054535;28;20201;-65
2021/11/17 14:58:11;;;;;;;19.10;8.47;;;18.80;99.90;;;;;;5051046;28;20198;-65
2021/11/17 15:00:48;;;;;;;26.30;10.63;;;18.70;99.90;;;;;;5059575;28;20705;-65
2021/11/17 15:03:16;;;;;;;20.73;8.97;;;18.60;99.90;;;;;;5061019;28;20191;-65
2021/11/17 15:05:43;;;;;;;24.83;10.23;;;18.60;99.90;;;;;;5038148;28;20183;-65
2021/11/17 15:08:10;;;;;;;26.50;9.37;;;18.60;99.90;;;;;;5057784;28;20198;-65
2021/11/17 15:10:37;;;;;;;21.20;9.60;;;18.50;99.90;;;;;;5060237;28;20191;-65
2021/11/17 15:13:06;;;;;;;17.97;9.27;;;18.50;99.90;;;;;;5048374;28;20190;-64
2021/11/17 15:15:41;;;;;;;19.10;9.47;;;18.50;99.90;;;;;;5050921;28;20183;-65
2021/11/17 15:18:08;;;;;;;19.90;9.70;;;18.40;99.90;;;;;;5057179;28;20205;-65
2021/11/17 15:20:36;;;;;;;19.67;9.60;;;18.40;99.90;;;;;;5054121;28;20206;-65
2021/11/17 15:23:06;;;;;;;31.03;9.57;;;18.40;99.90;;;;;;5065260;28;20284;-65
2021/11/17 15:25:37;;;;;;;16.17;9.83;;;18.40;99.90;;;;;;5056830;28;20655;-64
2021/11/17 15:28:20;;;;;;;17.43;11.00;;;18.40;99.90;;;;;;5059468;28;20191;-65
2021/11/17 15:30:55;;;;;;;26.27;10.83;;;18.30;99.90;;;;;;5053712;28;20192;-64
2021/11/17 15:33:22;;;;;;;18.80;10.27;;;18.20;99.90;;;;;;5055452;28;20247;-65
2021/11/17 15:35:49;;;;;;;22.97;10.00;;;18.20;99.90;;;;;;5053307;28;20198;-65
2021/11/17 15:38:17;;;;;;;21.77;9.43;;;18.10;99.90;;;;;;5057097;28;20184;-65
2021/11/17 15:40:55;;;;;;;26.63;10.10;;;18.10;99.90;;;;;;5075322;28;20552;-65
2021/11/17 15:43:23;;;;;;;28.67;11.63;;;18.00;99.90;;;;;;5065268;28;21034;-64
2021/11/17 15:45:54;;;;;;;29.87;9.63;;;18.00;99.90;;;;;;5056300;28;20532;-65
2021/11/17 15:48:23;;;;;;;20.93;10.87;;;17.90;99.90;;;;;;5052507;28;20195;-65
2021/11/17 15:51:15;;;;;;;23.90;10.77;;;17.80;99.90;;;;;;5052238;28;20191;-64
2021/11/17 15:53:41;;;;;;;15.70;10.40;;;17.80;99.90;;;;;;5062727;28;20655;-65
2021/11/17 15:56:09;;;;;;;19.93;11.33;;;17.80;99.90;;;;;;5057579;28;20198;-65
2021/11/17 15:58:36;;;;;;;24.10;11.70;;;17.70;99.90;;;;;;5056910;28;20207;-65
2021/11/17 16:01:05;;;;;;;28.13;11.80;;;17.70;99.90;;;;;;5058691;28;20212;-64
2021/11/17 16:03:31;;;;;;;29.83;10.50;;;17.60;99.90;;;;;;5063516;28;20190;-64
2021/11/17 16:06:03;;;;;;;20.23;11.07;;;17.60;99.90;;;;;;5059887;28;20325;-65
2021/11/17 16:08:32;;;;;;;18.33;11.13;;;17.60;99.90;;;;;;5060292;28;20182;-65
2021/11/17 16:10:58;;;;;;;21.27;10.67;;;17.60;99.90;;;;;;5061335;28;20191;-65